EZY21QW EGGW-LPMA
Flight info
| Callsign | EZY21QW |
|---|---|
| Flight time | 3h 17m |
| Altitude | 37000 |
| Route | RODN1C RODNI N27 ICTAM Q63 CPT Y321 PEPIS Q41 SAM M195 LORKU DCT EBOMO DCT COQUE DCT KORUL N728 DEMOS UN741 LIDRO LIDR1P |
| Aircraft | A320/M-SDE3FGHIRWY/LB1 |
Departure
| Time | 2026-05-06 06:54 |
|---|---|
| Airport | London Luton Airport (EGGW) |
Arrival
| Time | 2026-05-06 10:12 |
|---|---|
| Airport | Cristiano Ronaldo International Airport (LPMA) |
| Time | Latitude | Longitude | Altitude | Speed | Heading |
|---|---|---|---|---|---|
| 2026-05-06 06:05 | 51.87858 | -0.37895 | 524 ft | 0 kts | 46° |
| 2026-05-06 06:38 | 51.87854 | -0.37901 | 523 ft | 2 kts | 46° |
| 2026-05-06 06:39 | 51.87840 | -0.37924 | 523 ft | 3 kts | 46° |
| 2026-05-06 06:39 | 51.87828 | -0.37945 | 523 ft | 3 kts | 71° |
| 2026-05-06 06:39 | 51.87827 | -0.37967 | 523 ft | 3 kts | 132° |
| 2026-05-06 06:39 | 51.87838 | -0.37982 | 523 ft | 1 kts | 150° |
| 2026-05-06 06:40 | 51.87850 | -0.37993 | 523 ft | 2 kts | 150° |
| 2026-05-06 06:40 | 51.87852 | -0.37995 | 523 ft | 0 kts | 150° |
| 2026-05-06 06:42 | 51.87832 | -0.37974 | 523 ft | 4 kts | 143° |
| 2026-05-06 06:43 | 51.87801 | -0.37916 | 523 ft | 10 kts | 122° |
| 2026-05-06 06:43 | 51.87768 | -0.37806 | 523 ft | 10 kts | 115° |
| 2026-05-06 06:43 | 51.87740 | -0.37707 | 522 ft | 10 kts | 115° |
| 2026-05-06 06:43 | 51.87705 | -0.37588 | 519 ft | 12 kts | 115° |
| 2026-05-06 06:44 | 51.87668 | -0.37502 | 521 ft | 7 kts | 138° |
| 2026-05-06 06:44 | 51.87626 | -0.37457 | 523 ft | 7 kts | 146° |
| 2026-05-06 06:44 | 51.87588 | -0.37392 | 521 ft | 9 kts | 102° |
| 2026-05-06 06:44 | 51.87633 | -0.37346 | 521 ft | 4 kts | 15° |
| 2026-05-06 06:45 | 51.87646 | -0.37310 | 521 ft | 3 kts | 75° |
| 2026-05-06 06:45 | 51.87647 | -0.37299 | 521 ft | 0 kts | 75° |
| 2026-05-06 06:50 | 51.87648 | -0.37288 | 521 ft | 3 kts | 84° |
| 2026-05-06 06:50 | 51.87628 | -0.37264 | 521 ft | 5 kts | 181° |
| 2026-05-06 06:51 | 51.87597 | -0.37319 | 521 ft | 9 kts | 248° |
| 2026-05-06 06:51 | 51.87579 | -0.37415 | 523 ft | 7 kts | 249° |
| 2026-05-06 06:51 | 51.87530 | -0.37479 | 521 ft | 14 kts | 216° |
| 2026-05-06 06:51 | 51.87491 | -0.37617 | 523 ft | 12 kts | 254° |
| 2026-05-06 06:52 | 51.87471 | -0.37731 | 523 ft | 10 kts | 253° |
| 2026-05-06 06:52 | 51.87453 | -0.37832 | 522 ft | 8 kts | 255° |
| 2026-05-06 06:52 | 51.87440 | -0.37909 | 523 ft | 5 kts | 254° |
| 2026-05-06 06:52 | 51.87430 | -0.37966 | 524 ft | 8 kts | 252° |
| 2026-05-06 06:53 | 51.87369 | -0.38068 | 523 ft | 18 kts | 206° |
| 2026-05-06 06:53 | 51.87281 | -0.38112 | 522 ft | 9 kts | 179° |
| 2026-05-06 06:53 | 51.87248 | -0.38081 | 524 ft | 4 kts | 97° |
| 2026-05-06 06:53 | 51.87251 | -0.38063 | 524 ft | 0 kts | 72° |
| 2026-05-06 06:54 | 51.87293 | -0.37832 | 524 ft | 59 kts | 73° |
| 2026-05-06 06:54 | 51.87471 | -0.36800 | 524 ft | 129 kts | 75° |
| 2026-05-06 06:54 | 51.87767 | -0.35123 | 716 ft | 167 kts | 69° |
| 2026-05-06 06:54 | 51.88086 | -0.33344 | 1611 ft | 163 kts | 69° |
| 2026-05-06 06:55 | 51.88407 | -0.31581 | 2350 ft | 166 kts | 69° |
| 2026-05-06 06:55 | 51.88747 | -0.29719 | 2703 ft | 180 kts | 69° |
| 2026-05-06 06:55 | 51.89114 | -0.27653 | 2886 ft | 202 kts | 71° |
| 2026-05-06 06:55 | 51.89159 | -0.25228 | 3082 ft | 235 kts | 101° |
| 2026-05-06 06:56 | 51.88265 | -0.22857 | 3420 ft | 265 kts | 139° |
| 2026-05-06 06:56 | 51.86626 | -0.21330 | 4038 ft | 277 kts | 151° |
| 2026-05-06 06:56 | 51.84818 | -0.20193 | 4727 ft | 284 kts | 174° |
| 2026-05-06 06:56 | 51.82890 | -0.20632 | 5417 ft | 282 kts | 210° |
| 2026-05-06 06:57 | 51.81456 | -0.22662 | 6190 ft | 273 kts | 244° |
| 2026-05-06 06:57 | 51.80987 | -0.25528 | 6924 ft | 263 kts | 277° |
| 2026-05-06 06:57 | 51.81230 | -0.28464 | 7610 ft | 266 kts | 280° |
| 2026-05-06 06:57 | 51.81396 | -0.31477 | 8324 ft | 271 kts | 276° |
| 2026-05-06 06:58 | 51.81468 | -0.34551 | 9020 ft | 276 kts | 274° |
| 2026-05-06 06:58 | 51.81492 | -0.37661 | 9705 ft | 280 kts | 273° |
| 2026-05-06 06:58 | 51.81482 | -0.40835 | 10244 ft | 290 kts | 270° |
| 2026-05-06 06:58 | 51.81195 | -0.44196 | 10389 ft | 315 kts | 259° |
| 2026-05-06 06:59 | 51.80698 | -0.47762 | 10540 ft | 335 kts | 259° |
| 2026-05-06 06:59 | 51.80169 | -0.51498 | 10973 ft | 344 kts | 258° |
| 2026-05-06 06:59 | 51.79616 | -0.55286 | 11583 ft | 348 kts | 257° |
| 2026-05-06 06:59 | 51.79055 | -0.59049 | 12209 ft | 350 kts | 258° |
| 2026-05-06 07:00 | 51.78475 | -0.62883 | 12843 ft | 353 kts | 257° |
| 2026-05-06 07:00 | 51.77879 | -0.66747 | 13459 ft | 356 kts | 257° |
| 2026-05-06 07:00 | 51.77273 | -0.70639 | 14044 ft | 359 kts | 257° |
| 2026-05-06 07:00 | 51.76650 | -0.74537 | 14626 ft | 361 kts | 254° |
| 2026-05-06 07:01 | 51.75683 | -0.78291 | 15212 ft | 363 kts | 242° |
| 2026-05-06 07:01 | 51.74271 | -0.81678 | 15767 ft | 367 kts | 231° |
| 2026-05-06 07:01 | 51.72504 | -0.84668 | 16289 ft | 370 kts | 227° |
| 2026-05-06 07:01 | 51.70678 | -0.87610 | 16847 ft | 371 kts | 226° |
| 2026-05-06 07:02 | 51.68844 | -0.90555 | 17386 ft | 374 kts | 226° |
| 2026-05-06 07:02 | 51.67617 | -0.92522 | 17736 ft | 375 kts | 226° |
| 2026-05-06 07:02 | 51.65130 | -0.96499 | 18415 ft | 378 kts | 226° |
| 2026-05-06 07:02 | 51.63893 | -0.98475 | 18730 ft | 380 kts | 226° |
| 2026-05-06 07:03 | 51.62006 | -1.01487 | 19169 ft | 382 kts | 226° |
| 2026-05-06 07:03 | 51.59498 | -1.05498 | 19740 ft | 385 kts | 226° |
| 2026-05-06 07:03 | 51.57593 | -1.08550 | 20180 ft | 387 kts | 226° |
| 2026-05-06 07:03 | 51.55678 | -1.11610 | 20591 ft | 390 kts | 226° |
| 2026-05-06 07:04 | 51.54376 | -1.13685 | 20867 ft | 392 kts | 226° |
| 2026-05-06 07:04 | 51.52474 | -1.16704 | 21269 ft | 394 kts | 225° |
| 2026-05-06 07:04 | 51.50297 | -1.19400 | 21659 ft | 399 kts | 211° |
| 2026-05-06 07:04 | 51.47751 | -1.21218 | 22036 ft | 403 kts | 199° |
| 2026-05-06 07:05 | 51.44998 | -1.22203 | 22411 ft | 408 kts | 188° |
| 2026-05-06 07:05 | 51.42157 | -1.22499 | 22795 ft | 411 kts | 184° |
| 2026-05-06 07:05 | 51.39295 | -1.22720 | 23174 ft | 413 kts | 184° |
| 2026-05-06 07:05 | 51.36415 | -1.22966 | 23548 ft | 415 kts | 185° |
| 2026-05-06 07:06 | 51.33521 | -1.23221 | 23865 ft | 417 kts | 185° |
| 2026-05-06 07:06 | 51.30614 | -1.23476 | 24184 ft | 419 kts | 185° |
| 2026-05-06 07:06 | 51.27698 | -1.23721 | 24513 ft | 420 kts | 185° |
| 2026-05-06 07:06 | 51.24772 | -1.23957 | 24818 ft | 422 kts | 185° |
| 2026-05-06 07:07 | 51.21831 | -1.24196 | 25114 ft | 424 kts | 185° |
| 2026-05-06 07:07 | 51.18906 | -1.24742 | 25395 ft | 424 kts | 193° |
| 2026-05-06 07:07 | 51.16047 | -1.25877 | 25692 ft | 424 kts | 197° |
| 2026-05-06 07:07 | 51.13187 | -1.27082 | 25980 ft | 426 kts | 196° |
| 2026-05-06 07:08 | 51.10315 | -1.28294 | 26264 ft | 428 kts | 197° |
| 2026-05-06 07:08 | 51.07429 | -1.29514 | 26556 ft | 430 kts | 197° |
| 2026-05-06 07:08 | 51.04536 | -1.30736 | 26844 ft | 431 kts | 197° |
| 2026-05-06 07:08 | 51.01628 | -1.31962 | 27114 ft | 433 kts | 196° |
| 2026-05-06 07:09 | 50.98709 | -1.33187 | 27388 ft | 435 kts | 197° |
| 2026-05-06 07:09 | 50.95848 | -1.34738 | 27661 ft | 434 kts | 205° |
| 2026-05-06 07:09 | 50.93176 | -1.36963 | 27903 ft | 435 kts | 213° |
| 2026-05-06 07:09 | 50.90643 | -1.39599 | 28150 ft | 436 kts | 215° |
| 2026-05-06 07:10 | 50.88107 | -1.42240 | 28398 ft | 438 kts | 215° |
| 2026-05-06 07:10 | 50.85546 | -1.44904 | 28537 ft | 442 kts | 214° |
| 2026-05-06 07:10 | 50.82972 | -1.47575 | 28735 ft | 444 kts | 215° |
| 2026-05-06 07:10 | 50.80377 | -1.50266 | 28946 ft | 446 kts | 216° |
| 2026-05-06 07:11 | 50.77777 | -1.52961 | 29173 ft | 448 kts | 214° |
| 2026-05-06 07:11 | 50.75166 | -1.55661 | 29391 ft | 449 kts | 214° |
| 2026-05-06 07:11 | 50.72581 | -1.58331 | 29607 ft | 451 kts | 214° |
| 2026-05-06 07:11 | 50.69953 | -1.61040 | 29820 ft | 453 kts | 214° |
| 2026-05-06 07:12 | 50.67315 | -1.63755 | 30100 ft | 452 kts | 214° |
| 2026-05-06 07:12 | 50.64679 | -1.66466 | 30361 ft | 452 kts | 214° |
| 2026-05-06 07:12 | 50.62048 | -1.69174 | 30630 ft | 450 kts | 214° |
| 2026-05-06 07:12 | 50.59429 | -1.71872 | 30937 ft | 449 kts | 214° |
| 2026-05-06 07:13 | 50.56817 | -1.74553 | 31153 ft | 449 kts | 215° |
| 2026-05-06 07:13 | 50.54188 | -1.77236 | 31381 ft | 449 kts | 214° |
| 2026-05-06 07:13 | 50.51568 | -1.79905 | 31597 ft | 450 kts | 215° |
| 2026-05-06 07:13 | 50.48939 | -1.82582 | 31801 ft | 450 kts | 215° |
| 2026-05-06 07:14 | 50.46315 | -1.85255 | 32032 ft | 450 kts | 214° |
| 2026-05-06 07:14 | 50.43686 | -1.87931 | 32216 ft | 451 kts | 215° |
| 2026-05-06 07:14 | 50.41049 | -1.90612 | 32439 ft | 451 kts | 215° |
| 2026-05-06 07:14 | 50.38408 | -1.93295 | 32610 ft | 453 kts | 214° |
| 2026-05-06 07:15 | 50.35764 | -1.95978 | 32793 ft | 454 kts | 214° |
| 2026-05-06 07:15 | 50.33110 | -1.98666 | 33023 ft | 454 kts | 214° |
| 2026-05-06 07:15 | 50.30453 | -2.01354 | 33236 ft | 454 kts | 214° |
| 2026-05-06 07:15 | 50.27834 | -2.03998 | 33469 ft | 454 kts | 214° |
| 2026-05-06 07:16 | 50.25147 | -2.06711 | 33717 ft | 453 kts | 214° |
| 2026-05-06 07:16 | 50.22528 | -2.09338 | 33939 ft | 454 kts | 214° |
| 2026-05-06 07:16 | 50.19821 | -2.12000 | 34141 ft | 453 kts | 213° |
| 2026-05-06 07:16 | 50.17178 | -2.14560 | 34336 ft | 453 kts | 213° |
| 2026-05-06 07:17 | 50.14496 | -2.17142 | 34503 ft | 454 kts | 213° |
| 2026-05-06 07:17 | 50.11811 | -2.19729 | 34695 ft | 453 kts | 213° |
| 2026-05-06 07:17 | 50.09131 | -2.22314 | 34875 ft | 453 kts | 213° |
| 2026-05-06 07:18 | 50.03782 | -2.27483 | 34969 ft | 452 kts | 213° |
| 2026-05-06 07:18 | 49.98453 | -2.32644 | 34973 ft | 450 kts | 213° |
| 2026-05-06 07:19 | 49.93135 | -2.37778 | 34970 ft | 451 kts | 213° |
| 2026-05-06 07:19 | 49.87800 | -2.42908 | 34962 ft | 452 kts | 213° |
| 2026-05-06 07:20 | 49.82454 | -2.48039 | 34979 ft | 452 kts | 213° |
| 2026-05-06 07:20 | 49.77113 | -2.53160 | 34964 ft | 452 kts | 213° |
| 2026-05-06 07:21 | 49.71768 | -2.58271 | 34959 ft | 451 kts | 213° |
| 2026-05-06 07:21 | 49.66414 | -2.63374 | 34950 ft | 452 kts | 212° |
| 2026-05-06 07:22 | 49.61062 | -2.68446 | 34945 ft | 451 kts | 212° |
| 2026-05-06 07:22 | 49.55715 | -2.73510 | 34934 ft | 451 kts | 213° |
| 2026-05-06 07:23 | 49.50358 | -2.78579 | 34935 ft | 451 kts | 212° |
| 2026-05-06 07:23 | 49.45002 | -2.83626 | 34942 ft | 452 kts | 212° |
| 2026-05-06 07:24 | 49.39640 | -2.88667 | 34946 ft | 452 kts | 212° |
| 2026-05-06 07:24 | 49.34271 | -2.93714 | 34948 ft | 453 kts | 212° |
| 2026-05-06 07:25 | 49.28924 | -2.98727 | 34960 ft | 453 kts | 212° |
| 2026-05-06 07:25 | 49.23544 | -3.03748 | 34954 ft | 453 kts | 212° |
| 2026-05-06 07:26 | 49.18159 | -3.08752 | 34953 ft | 453 kts | 212° |
| 2026-05-06 07:26 | 49.12770 | -3.13740 | 34949 ft | 453 kts | 212° |
| 2026-05-06 07:27 | 49.07371 | -3.18739 | 34954 ft | 454 kts | 212° |
| 2026-05-06 07:27 | 49.01975 | -3.23721 | 34946 ft | 454 kts | 212° |
| 2026-05-06 07:28 | 48.96571 | -3.28711 | 34952 ft | 454 kts | 212° |
| 2026-05-06 07:28 | 48.88456 | -3.36175 | 34963 ft | 454 kts | 212° |
| 2026-05-06 07:29 | 48.83038 | -3.41125 | 34967 ft | 455 kts | 212° |
| 2026-05-06 07:29 | 48.77614 | -3.46062 | 34965 ft | 455 kts | 212° |
| 2026-05-06 07:30 | 48.72196 | -3.51007 | 34961 ft | 455 kts | 212° |
| 2026-05-06 07:30 | 48.66768 | -3.55941 | 34960 ft | 454 kts | 212° |
| 2026-05-06 07:31 | 48.61348 | -3.60848 | 34965 ft | 454 kts | 212° |
| 2026-05-06 07:31 | 48.55925 | -3.65749 | 34962 ft | 454 kts | 212° |
| 2026-05-06 07:32 | 48.50528 | -3.70618 | 34960 ft | 455 kts | 212° |
| 2026-05-06 07:32 | 48.45090 | -3.75511 | 34954 ft | 455 kts | 212° |
| 2026-05-06 07:33 | 48.39649 | -3.80390 | 34963 ft | 455 kts | 212° |
| 2026-05-06 07:33 | 48.34199 | -3.85266 | 34964 ft | 456 kts | 212° |
| 2026-05-06 07:34 | 48.28748 | -3.90126 | 34955 ft | 456 kts | 212° |
| 2026-05-06 07:34 | 48.23288 | -3.94983 | 34962 ft | 456 kts | 212° |
| 2026-05-06 07:35 | 48.17827 | -3.99825 | 34966 ft | 456 kts | 212° |
| 2026-05-06 07:35 | 48.12369 | -4.04663 | 34962 ft | 456 kts | 212° |
| 2026-05-06 07:36 | 48.06910 | -4.09494 | 34960 ft | 456 kts | 212° |
| 2026-05-06 07:36 | 48.01439 | -4.14312 | 34962 ft | 456 kts | 212° |
| 2026-05-06 07:37 | 47.95966 | -4.19128 | 34963 ft | 456 kts | 212° |
| 2026-05-06 07:37 | 47.90495 | -4.23935 | 34964 ft | 456 kts | 212° |
| 2026-05-06 07:38 | 47.85010 | -4.28729 | 34957 ft | 457 kts | 212° |
| 2026-05-06 07:38 | 47.79539 | -4.33546 | 34967 ft | 457 kts | 213° |
| 2026-05-06 07:39 | 47.74138 | -4.38553 | 34974 ft | 457 kts | 214° |
| 2026-05-06 07:39 | 47.68797 | -4.43579 | 34973 ft | 458 kts | 213° |
| 2026-05-06 07:40 | 47.63397 | -4.48594 | 34974 ft | 458 kts | 213° |
| 2026-05-06 07:40 | 47.57976 | -4.53569 | 34980 ft | 458 kts | 213° |
| 2026-05-06 07:41 | 47.52555 | -4.58538 | 34979 ft | 458 kts | 213° |
| 2026-05-06 07:41 | 47.47133 | -4.63494 | 34984 ft | 458 kts | 213° |
| 2026-05-06 07:42 | 47.41709 | -4.68443 | 34992 ft | 458 kts | 213° |
| 2026-05-06 07:42 | 47.36279 | -4.73391 | 34991 ft | 458 kts | 213° |
| 2026-05-06 07:43 | 47.30853 | -4.78326 | 34989 ft | 458 kts | 213° |
| 2026-05-06 07:43 | 47.25465 | -4.83215 | 34996 ft | 458 kts | 213° |
| 2026-05-06 07:44 | 47.20033 | -4.88129 | 34997 ft | 458 kts | 213° |
| 2026-05-06 07:44 | 47.14598 | -4.93032 | 34996 ft | 458 kts | 213° |
| 2026-05-06 07:45 | 47.09164 | -4.97929 | 34997 ft | 458 kts | 213° |
| 2026-05-06 07:45 | 47.03735 | -5.02817 | 34997 ft | 458 kts | 213° |
| 2026-05-06 07:46 | 46.98300 | -5.07712 | 35000 ft | 458 kts | 213° |
| 2026-05-06 07:46 | 46.92862 | -5.12593 | 35000 ft | 458 kts | 213° |
| 2026-05-06 07:47 | 46.88339 | -5.16636 | 35008 ft | 458 kts | 213° |
| 2026-05-06 07:47 | 46.82891 | -5.21495 | 35009 ft | 458 kts | 213° |
| 2026-05-06 07:48 | 46.77453 | -5.26353 | 35017 ft | 458 kts | 213° |
| 2026-05-06 07:48 | 46.72015 | -5.31207 | 35008 ft | 458 kts | 213° |
| 2026-05-06 07:49 | 46.66567 | -5.36039 | 35018 ft | 458 kts | 213° |
| 2026-05-06 07:49 | 46.61118 | -5.40840 | 35016 ft | 458 kts | 212° |
| 2026-05-06 07:50 | 46.55664 | -5.45647 | 35017 ft | 458 kts | 212° |
| 2026-05-06 07:50 | 46.50245 | -5.50423 | 35023 ft | 458 kts | 213° |
| 2026-05-06 07:51 | 46.44766 | -5.55255 | 35016 ft | 458 kts | 213° |
| 2026-05-06 07:51 | 46.39346 | -5.60017 | 35028 ft | 458 kts | 212° |
| 2026-05-06 07:52 | 46.33889 | -5.64781 | 35012 ft | 458 kts | 212° |
| 2026-05-06 07:52 | 46.28429 | -5.69531 | 35020 ft | 458 kts | 212° |
| 2026-05-06 07:53 | 46.22979 | -5.74277 | 35018 ft | 457 kts | 212° |
| 2026-05-06 07:53 | 46.17525 | -5.79014 | 35028 ft | 457 kts | 212° |
| 2026-05-06 07:54 | 46.12066 | -5.83736 | 35028 ft | 457 kts | 212° |
| 2026-05-06 07:54 | 46.06608 | -5.88443 | 35031 ft | 457 kts | 212° |
| 2026-05-06 07:55 | 46.01153 | -5.93144 | 35028 ft | 457 kts | 212° |
| 2026-05-06 07:55 | 45.95700 | -5.97840 | 35028 ft | 457 kts | 212° |
| 2026-05-06 07:56 | 45.90244 | -6.02531 | 35029 ft | 457 kts | 212° |
| 2026-05-06 07:56 | 45.84779 | -6.07208 | 35031 ft | 457 kts | 212° |
| 2026-05-06 07:57 | 45.79349 | -6.11843 | 35031 ft | 457 kts | 212° |
| 2026-05-06 07:57 | 45.73878 | -6.16496 | 35034 ft | 457 kts | 212° |
| 2026-05-06 07:58 | 45.68413 | -6.21137 | 35034 ft | 457 kts | 212° |
| 2026-05-06 07:58 | 45.62946 | -6.25781 | 35035 ft | 457 kts | 212° |
| 2026-05-06 07:59 | 45.57476 | -6.30414 | 35029 ft | 456 kts | 212° |
| 2026-05-06 07:59 | 45.52013 | -6.35031 | 35030 ft | 456 kts | 212° |
| 2026-05-06 08:00 | 45.46549 | -6.39632 | 35035 ft | 457 kts | 212° |
| 2026-05-06 08:00 | 45.41067 | -6.44226 | 35036 ft | 457 kts | 212° |
| 2026-05-06 08:01 | 45.35593 | -6.48832 | 35037 ft | 456 kts | 212° |
| 2026-05-06 08:01 | 45.30121 | -6.53414 | 35040 ft | 456 kts | 212° |
| 2026-05-06 08:02 | 45.24682 | -6.57949 | 35029 ft | 456 kts | 212° |
| 2026-05-06 08:02 | 45.19212 | -6.62508 | 35033 ft | 456 kts | 212° |
| 2026-05-06 08:03 | 45.13741 | -6.67049 | 35037 ft | 455 kts | 212° |
| 2026-05-06 08:03 | 45.08277 | -6.71570 | 35042 ft | 455 kts | 212° |
| 2026-05-06 08:04 | 45.02814 | -6.76092 | 35048 ft | 455 kts | 212° |
| 2026-05-06 08:04 | 44.97353 | -6.80597 | 35047 ft | 455 kts | 212° |
| 2026-05-06 08:05 | 44.91888 | -6.85107 | 35042 ft | 455 kts | 212° |
| 2026-05-06 08:05 | 44.86420 | -6.89593 | 35054 ft | 454 kts | 212° |
| 2026-05-06 08:06 | 44.80965 | -6.94065 | 35066 ft | 453 kts | 212° |
| 2026-05-06 08:06 | 44.75526 | -6.98526 | 35062 ft | 452 kts | 212° |
| 2026-05-06 08:07 | 44.70084 | -7.02962 | 35064 ft | 452 kts | 212° |
| 2026-05-06 08:07 | 44.64650 | -7.07389 | 35063 ft | 451 kts | 212° |
| 2026-05-06 08:08 | 44.59211 | -7.11791 | 35061 ft | 451 kts | 212° |
| 2026-05-06 08:08 | 44.53776 | -7.16184 | 35061 ft | 451 kts | 212° |
| 2026-05-06 08:09 | 44.48338 | -7.20580 | 35060 ft | 451 kts | 212° |
| 2026-05-06 08:09 | 44.42904 | -7.24977 | 35064 ft | 450 kts | 212° |
| 2026-05-06 08:10 | 44.37518 | -7.29325 | 35065 ft | 449 kts | 212° |
| 2026-05-06 08:10 | 44.32093 | -7.33676 | 35072 ft | 449 kts | 212° |
| 2026-05-06 08:11 | 44.26677 | -7.38008 | 35069 ft | 449 kts | 212° |
| 2026-05-06 08:11 | 44.21262 | -7.42331 | 35072 ft | 448 kts | 212° |
| 2026-05-06 08:12 | 44.15843 | -7.46656 | 35070 ft | 448 kts | 212° |
| 2026-05-06 08:12 | 44.10436 | -7.50961 | 35074 ft | 448 kts | 212° |
| 2026-05-06 08:13 | 44.05028 | -7.55268 | 35076 ft | 448 kts | 212° |
| 2026-05-06 08:13 | 43.99617 | -7.59562 | 35079 ft | 448 kts | 212° |
| 2026-05-06 08:14 | 43.94208 | -7.63835 | 35073 ft | 447 kts | 212° |
| 2026-05-06 08:14 | 43.88801 | -7.68105 | 35075 ft | 447 kts | 212° |
| 2026-05-06 08:15 | 43.83396 | -7.72356 | 35077 ft | 447 kts | 212° |
| 2026-05-06 08:15 | 43.77989 | -7.76613 | 35077 ft | 447 kts | 212° |
| 2026-05-06 08:16 | 43.72595 | -7.80855 | 35074 ft | 446 kts | 212° |
| 2026-05-06 08:16 | 43.67185 | -7.85085 | 35079 ft | 446 kts | 212° |
| 2026-05-06 08:17 | 43.61781 | -7.89307 | 35079 ft | 446 kts | 212° |
| 2026-05-06 08:17 | 43.56385 | -7.93517 | 35076 ft | 446 kts | 212° |
| 2026-05-06 08:18 | 43.51020 | -7.97688 | 35071 ft | 445 kts | 212° |
| 2026-05-06 08:18 | 43.45627 | -8.01882 | 35077 ft | 445 kts | 212° |
| 2026-05-06 08:19 | 43.40226 | -8.06068 | 35081 ft | 445 kts | 212° |
| 2026-05-06 08:19 | 43.34835 | -8.10237 | 35084 ft | 445 kts | 212° |
| 2026-05-06 08:20 | 43.29443 | -8.14396 | 35081 ft | 444 kts | 212° |
| 2026-05-06 08:20 | 43.24057 | -8.18548 | 35085 ft | 444 kts | 212° |
| 2026-05-06 08:21 | 43.18666 | -8.22686 | 35084 ft | 444 kts | 212° |
| 2026-05-06 08:21 | 43.13275 | -8.26811 | 35081 ft | 444 kts | 212° |
| 2026-05-06 08:22 | 43.07895 | -8.30929 | 35074 ft | 443 kts | 212° |
| 2026-05-06 08:22 | 43.02522 | -8.35041 | 35080 ft | 443 kts | 212° |
| 2026-05-06 08:23 | 42.97147 | -8.39137 | 35086 ft | 442 kts | 212° |
| 2026-05-06 08:23 | 42.91832 | -8.43338 | 35081 ft | 440 kts | 218° |
| 2026-05-06 08:24 | 42.86823 | -8.48136 | 35067 ft | 440 kts | 217° |
| 2026-05-06 08:24 | 42.81800 | -8.52908 | 35076 ft | 440 kts | 217° |
| 2026-05-06 08:25 | 42.76815 | -8.57633 | 35065 ft | 439 kts | 217° |
| 2026-05-06 08:25 | 42.71770 | -8.62409 | 35067 ft | 439 kts | 217° |
| 2026-05-06 08:26 | 42.66776 | -8.67129 | 35187 ft | 440 kts | 217° |
| 2026-05-06 08:26 | 42.64265 | -8.69499 | 35398 ft | 440 kts | 217° |
| 2026-05-06 08:26 | 42.61752 | -8.71870 | 35598 ft | 440 kts | 217° |
| 2026-05-06 08:27 | 42.59238 | -8.74240 | 35788 ft | 440 kts | 217° |
| 2026-05-06 08:27 | 42.56723 | -8.76604 | 35956 ft | 440 kts | 217° |
| 2026-05-06 08:27 | 42.54209 | -8.78964 | 36133 ft | 440 kts | 217° |
| 2026-05-06 08:27 | 42.51688 | -8.81332 | 36303 ft | 440 kts | 217° |
| 2026-05-06 08:28 | 42.49171 | -8.83693 | 36482 ft | 440 kts | 217° |
| 2026-05-06 08:28 | 42.46651 | -8.86055 | 36642 ft | 440 kts | 217° |
| 2026-05-06 08:28 | 42.44135 | -8.88410 | 36783 ft | 440 kts | 217° |
| 2026-05-06 08:28 | 42.41618 | -8.90765 | 36943 ft | 440 kts | 217° |
| 2026-05-06 08:29 | 42.39096 | -8.93126 | 37055 ft | 440 kts | 217° |
| 2026-05-06 08:29 | 42.36575 | -8.95483 | 37071 ft | 441 kts | 217° |
| 2026-05-06 08:29 | 42.31527 | -9.00187 | 37065 ft | 440 kts | 217° |
| 2026-05-06 08:30 | 42.26476 | -9.04885 | 37067 ft | 440 kts | 217° |
| 2026-05-06 08:30 | 42.21435 | -9.09568 | 37065 ft | 440 kts | 217° |
| 2026-05-06 08:31 | 42.16395 | -9.14233 | 37078 ft | 439 kts | 217° |
| 2026-05-06 08:31 | 42.11358 | -9.18885 | 37075 ft | 439 kts | 217° |
| 2026-05-06 08:32 | 42.07167 | -9.22755 | 37078 ft | 439 kts | 217° |
| 2026-05-06 08:32 | 42.02129 | -9.27405 | 37075 ft | 439 kts | 217° |
| 2026-05-06 08:33 | 41.97087 | -9.32051 | 37078 ft | 439 kts | 217° |
| 2026-05-06 08:33 | 41.92040 | -9.36686 | 37082 ft | 439 kts | 217° |
| 2026-05-06 08:34 | 41.84467 | -9.43608 | 37085 ft | 439 kts | 217° |
| 2026-05-06 08:35 | 41.79410 | -9.48218 | 37069 ft | 439 kts | 217° |
| 2026-05-06 08:35 | 41.74372 | -9.52826 | 37081 ft | 438 kts | 217° |
| 2026-05-06 08:36 | 41.69328 | -9.57424 | 37088 ft | 438 kts | 216° |
| 2026-05-06 08:36 | 41.64314 | -9.61971 | 37089 ft | 438 kts | 216° |
| 2026-05-06 08:37 | 41.59268 | -9.66543 | 37087 ft | 438 kts | 216° |
| 2026-05-06 08:37 | 41.54222 | -9.71098 | 37091 ft | 438 kts | 216° |
| 2026-05-06 08:38 | 41.49174 | -9.75653 | 37094 ft | 438 kts | 216° |
| 2026-05-06 08:38 | 41.44122 | -9.80203 | 37093 ft | 438 kts | 216° |
| 2026-05-06 08:39 | 41.39075 | -9.84741 | 37090 ft | 438 kts | 216° |
| 2026-05-06 08:39 | 41.34019 | -9.89284 | 37085 ft | 438 kts | 216° |
| 2026-05-06 08:40 | 41.28974 | -9.93809 | 37091 ft | 438 kts | 216° |
| 2026-05-06 08:40 | 41.23916 | -9.98334 | 37100 ft | 438 kts | 216° |
| 2026-05-06 08:41 | 41.18866 | -10.02836 | 37104 ft | 437 kts | 216° |
| 2026-05-06 08:41 | 41.13810 | -10.07335 | 37104 ft | 437 kts | 216° |
| 2026-05-06 08:42 | 41.08763 | -10.11830 | 37091 ft | 437 kts | 216° |
| 2026-05-06 08:42 | 41.03708 | -10.16322 | 37099 ft | 437 kts | 216° |
| 2026-05-06 08:43 | 40.98688 | -10.20773 | 37099 ft | 437 kts | 216° |
| 2026-05-06 08:43 | 40.93638 | -10.25242 | 37097 ft | 437 kts | 216° |
| 2026-05-06 08:44 | 40.88576 | -10.29708 | 37086 ft | 437 kts | 216° |
| 2026-05-06 08:44 | 40.83517 | -10.34159 | 37091 ft | 437 kts | 216° |
| 2026-05-06 08:45 | 40.78456 | -10.38616 | 37097 ft | 437 kts | 216° |
| 2026-05-06 08:45 | 40.73392 | -10.43066 | 37100 ft | 437 kts | 216° |
| 2026-05-06 08:46 | 40.68336 | -10.47507 | 37103 ft | 437 kts | 216° |
| 2026-05-06 08:46 | 40.63275 | -10.51936 | 37085 ft | 437 kts | 216° |
| 2026-05-06 08:47 | 40.58212 | -10.56353 | 37089 ft | 436 kts | 216° |
| 2026-05-06 08:47 | 40.53145 | -10.60761 | 37085 ft | 437 kts | 216° |
| 2026-05-06 08:48 | 40.48068 | -10.65170 | 37089 ft | 437 kts | 216° |
| 2026-05-06 08:48 | 40.43026 | -10.69544 | 37091 ft | 438 kts | 216° |
| 2026-05-06 08:49 | 40.37935 | -10.73948 | 37096 ft | 438 kts | 216° |
| 2026-05-06 08:49 | 40.32850 | -10.78349 | 37096 ft | 438 kts | 216° |
| 2026-05-06 08:50 | 40.27767 | -10.82757 | 37094 ft | 438 kts | 216° |
| 2026-05-06 08:50 | 40.22668 | -10.87146 | 37105 ft | 438 kts | 216° |
| 2026-05-06 08:51 | 40.17574 | -10.91527 | 37112 ft | 438 kts | 216° |
| 2026-05-06 08:51 | 40.12473 | -10.95904 | 37090 ft | 438 kts | 216° |
| 2026-05-06 08:52 | 40.07363 | -11.00272 | 37094 ft | 439 kts | 216° |
| 2026-05-06 08:52 | 40.02253 | -11.04644 | 37093 ft | 439 kts | 216° |
| 2026-05-06 08:53 | 39.97144 | -11.09007 | 37091 ft | 439 kts | 216° |
| 2026-05-06 08:53 | 39.92032 | -11.13365 | 37090 ft | 439 kts | 216° |
| 2026-05-06 08:54 | 39.86911 | -11.17725 | 37091 ft | 440 kts | 216° |
| 2026-05-06 08:54 | 39.81786 | -11.22072 | 37087 ft | 440 kts | 216° |
| 2026-05-06 08:55 | 39.76664 | -11.26419 | 37090 ft | 440 kts | 216° |
| 2026-05-06 08:55 | 39.71530 | -11.30771 | 37097 ft | 440 kts | 216° |
| 2026-05-06 08:56 | 39.66392 | -11.35103 | 37073 ft | 441 kts | 217° |
| 2026-05-06 08:56 | 39.61275 | -11.39404 | 37086 ft | 441 kts | 216° |
| 2026-05-06 08:57 | 39.56117 | -11.43739 | 37095 ft | 442 kts | 217° |
| 2026-05-06 08:57 | 39.50955 | -11.48084 | 37100 ft | 442 kts | 217° |
| 2026-05-06 08:58 | 39.45788 | -11.52428 | 37102 ft | 442 kts | 216° |
| 2026-05-06 08:58 | 39.40620 | -11.56754 | 37093 ft | 443 kts | 216° |
| 2026-05-06 08:59 | 39.35442 | -11.61076 | 37099 ft | 443 kts | 216° |
| 2026-05-06 08:59 | 39.30297 | -11.65373 | 37110 ft | 443 kts | 216° |
| 2026-05-06 09:00 | 39.25112 | -11.69686 | 37112 ft | 443 kts | 216° |
| 2026-05-06 09:00 | 39.19927 | -11.73989 | 37099 ft | 443 kts | 216° |
| 2026-05-06 09:01 | 39.14739 | -11.78289 | 37119 ft | 443 kts | 216° |
| 2026-05-06 09:01 | 39.09550 | -11.82592 | 37120 ft | 444 kts | 216° |
| 2026-05-06 09:02 | 39.04361 | -11.86887 | 37119 ft | 444 kts | 216° |
| 2026-05-06 09:02 | 38.99165 | -11.91178 | 37125 ft | 444 kts | 216° |
| 2026-05-06 09:03 | 38.93962 | -11.95446 | 37109 ft | 444 kts | 216° |
| 2026-05-06 09:03 | 38.88757 | -11.99718 | 37116 ft | 444 kts | 216° |
| 2026-05-06 09:04 | 38.83547 | -12.03992 | 37118 ft | 444 kts | 216° |
| 2026-05-06 09:04 | 38.78341 | -12.08254 | 37112 ft | 444 kts | 216° |
| 2026-05-06 09:05 | 38.73135 | -12.12522 | 37116 ft | 445 kts | 216° |
| 2026-05-06 09:05 | 38.67920 | -12.16784 | 37110 ft | 445 kts | 216° |
| 2026-05-06 09:06 | 38.62696 | -12.21042 | 37117 ft | 445 kts | 216° |
| 2026-05-06 09:06 | 38.57463 | -12.25293 | 37123 ft | 445 kts | 216° |
| 2026-05-06 09:07 | 38.52242 | -12.29538 | 37123 ft | 445 kts | 216° |
| 2026-05-06 09:07 | 38.47006 | -12.33780 | 37126 ft | 445 kts | 216° |
| 2026-05-06 09:08 | 38.41780 | -12.38009 | 37115 ft | 445 kts | 216° |
| 2026-05-06 09:08 | 38.36542 | -12.42241 | 37108 ft | 445 kts | 216° |
| 2026-05-06 09:09 | 38.31337 | -12.46438 | 37116 ft | 446 kts | 216° |
| 2026-05-06 09:09 | 38.26094 | -12.50661 | 37127 ft | 446 kts | 216° |
| 2026-05-06 09:10 | 38.20852 | -12.54878 | 37115 ft | 446 kts | 216° |
| 2026-05-06 09:10 | 38.15605 | -12.59076 | 37122 ft | 446 kts | 216° |
| 2026-05-06 09:11 | 38.10355 | -12.63274 | 37133 ft | 446 kts | 216° |
| 2026-05-06 09:11 | 38.05111 | -12.67468 | 37137 ft | 446 kts | 216° |
| 2026-05-06 09:12 | 37.99867 | -12.71656 | 37138 ft | 446 kts | 216° |
| 2026-05-06 09:12 | 37.94617 | -12.75845 | 37120 ft | 446 kts | 216° |
| 2026-05-06 09:13 | 37.89369 | -12.80026 | 37113 ft | 446 kts | 216° |
| 2026-05-06 09:13 | 37.84107 | -12.84197 | 37123 ft | 446 kts | 215° |
| 2026-05-06 09:14 | 37.78845 | -12.88363 | 37133 ft | 446 kts | 215° |
| 2026-05-06 09:14 | 37.73585 | -12.92526 | 37132 ft | 446 kts | 215° |
| 2026-05-06 09:15 | 37.68322 | -12.96679 | 37138 ft | 446 kts | 215° |
| 2026-05-06 09:15 | 37.63059 | -13.00828 | 37138 ft | 446 kts | 215° |
| 2026-05-06 09:16 | 37.57833 | -13.04951 | 37135 ft | 446 kts | 215° |
| 2026-05-06 09:16 | 37.52570 | -13.09096 | 37144 ft | 446 kts | 215° |
| 2026-05-06 09:17 | 37.47304 | -13.13239 | 37145 ft | 446 kts | 215° |
| 2026-05-06 09:17 | 37.42036 | -13.17365 | 37121 ft | 446 kts | 215° |
| 2026-05-06 09:18 | 37.36762 | -13.21473 | 37127 ft | 446 kts | 215° |
| 2026-05-06 09:18 | 37.32381 | -13.24885 | 37133 ft | 446 kts | 215° |
| 2026-05-06 09:19 | 37.27111 | -13.28994 | 37142 ft | 446 kts | 215° |
| 2026-05-06 09:19 | 37.21842 | -13.33103 | 37143 ft | 446 kts | 215° |
| 2026-05-06 09:20 | 37.16569 | -13.37196 | 37128 ft | 446 kts | 215° |
| 2026-05-06 09:20 | 37.11294 | -13.41289 | 37136 ft | 446 kts | 215° |
| 2026-05-06 09:21 | 37.06016 | -13.45379 | 37142 ft | 446 kts | 215° |
| 2026-05-06 09:21 | 37.00724 | -13.49469 | 37146 ft | 446 kts | 215° |
| 2026-05-06 09:22 | 36.95440 | -13.53551 | 37147 ft | 447 kts | 215° |
| 2026-05-06 09:22 | 36.90148 | -13.57628 | 37142 ft | 447 kts | 215° |
| 2026-05-06 09:23 | 36.84861 | -13.61695 | 37146 ft | 446 kts | 215° |
| 2026-05-06 09:23 | 36.79569 | -13.65760 | 37149 ft | 446 kts | 214° |
| 2026-05-06 09:24 | 36.74284 | -13.69815 | 37151 ft | 446 kts | 214° |
| 2026-05-06 09:24 | 36.68993 | -13.73868 | 37152 ft | 446 kts | 214° |
| 2026-05-06 09:25 | 36.63708 | -13.77909 | 37141 ft | 446 kts | 214° |
| 2026-05-06 09:25 | 36.58411 | -13.81940 | 37152 ft | 446 kts | 214° |
| 2026-05-06 09:26 | 36.53120 | -13.85973 | 37136 ft | 446 kts | 214° |
| 2026-05-06 09:26 | 36.47828 | -13.90000 | 37139 ft | 446 kts | 214° |
| 2026-05-06 09:27 | 36.42537 | -13.94018 | 37147 ft | 446 kts | 214° |
| 2026-05-06 09:27 | 36.37240 | -13.98034 | 37140 ft | 446 kts | 214° |
| 2026-05-06 09:28 | 36.31937 | -14.02041 | 37147 ft | 446 kts | 214° |
| 2026-05-06 09:28 | 36.26632 | -14.06047 | 37153 ft | 446 kts | 214° |
| 2026-05-06 09:29 | 36.21365 | -14.10027 | 37156 ft | 446 kts | 214° |
| 2026-05-06 09:29 | 36.16065 | -14.14023 | 37157 ft | 446 kts | 214° |
| 2026-05-06 09:30 | 36.10761 | -14.18014 | 37148 ft | 446 kts | 214° |
| 2026-05-06 09:30 | 36.05451 | -14.21995 | 37142 ft | 446 kts | 214° |
| 2026-05-06 09:31 | 36.00137 | -14.25976 | 37145 ft | 447 kts | 214° |
| 2026-05-06 09:31 | 35.94819 | -14.29959 | 37148 ft | 447 kts | 214° |
| 2026-05-06 09:32 | 35.89491 | -14.33942 | 37158 ft | 448 kts | 214° |
| 2026-05-06 09:32 | 35.84158 | -14.37917 | 37151 ft | 448 kts | 214° |
| 2026-05-06 09:33 | 35.78825 | -14.41884 | 37156 ft | 448 kts | 214° |
| 2026-05-06 09:33 | 35.73485 | -14.45853 | 37170 ft | 448 kts | 214° |
| 2026-05-06 09:34 | 35.68149 | -14.49822 | 37168 ft | 448 kts | 214° |
| 2026-05-06 09:34 | 35.62810 | -14.53791 | 37177 ft | 448 kts | 214° |
| 2026-05-06 09:35 | 35.57457 | -14.57737 | 37148 ft | 448 kts | 214° |
| 2026-05-06 09:35 | 35.52104 | -14.61681 | 37152 ft | 449 kts | 214° |
| 2026-05-06 09:36 | 35.46750 | -14.65646 | 37156 ft | 450 kts | 214° |
| 2026-05-06 09:36 | 35.41386 | -14.69610 | 37157 ft | 450 kts | 214° |
| 2026-05-06 09:37 | 35.36017 | -14.73558 | 37160 ft | 450 kts | 214° |
| 2026-05-06 09:37 | 35.30643 | -14.77495 | 37147 ft | 450 kts | 214° |
| 2026-05-06 09:38 | 35.25268 | -14.81419 | 37158 ft | 450 kts | 214° |
| 2026-05-06 09:38 | 35.19891 | -14.85357 | 37166 ft | 451 kts | 214° |
| 2026-05-06 09:39 | 35.14546 | -14.89270 | 37169 ft | 450 kts | 214° |
| 2026-05-06 09:39 | 35.09167 | -14.93196 | 37172 ft | 451 kts | 214° |
| 2026-05-06 09:40 | 35.03771 | -14.97119 | 37148 ft | 452 kts | 214° |
| 2026-05-06 09:40 | 34.95659 | -15.03020 | 37147 ft | 454 kts | 214° |
| 2026-05-06 09:41 | 34.90232 | -15.06961 | 37149 ft | 455 kts | 214° |
| 2026-05-06 09:41 | 34.84792 | -15.10903 | 37156 ft | 455 kts | 214° |
| 2026-05-06 09:42 | 34.79338 | -15.14851 | 37148 ft | 456 kts | 214° |
| 2026-05-06 09:42 | 34.73885 | -15.18782 | 37167 ft | 456 kts | 214° |
| 2026-05-06 09:43 | 34.68429 | -15.22713 | 37175 ft | 455 kts | 214° |
| 2026-05-06 09:43 | 34.62981 | -15.26641 | 37179 ft | 455 kts | 214° |
| 2026-05-06 09:44 | 34.57525 | -15.30558 | 37180 ft | 455 kts | 214° |
| 2026-05-06 09:44 | 34.52109 | -15.34443 | 37159 ft | 455 kts | 214° |
| 2026-05-06 09:45 | 34.46662 | -15.38347 | 37175 ft | 455 kts | 214° |
| 2026-05-06 09:45 | 34.41216 | -15.42253 | 37182 ft | 455 kts | 214° |
| 2026-05-06 09:46 | 34.35774 | -15.46151 | 37179 ft | 454 kts | 214° |
| 2026-05-06 09:46 | 34.30330 | -15.50036 | 37179 ft | 455 kts | 214° |
| 2026-05-06 09:47 | 34.24868 | -15.53923 | 36905 ft | 455 kts | 214° |
| 2026-05-06 09:47 | 34.22154 | -15.55852 | 36466 ft | 453 kts | 214° |
| 2026-05-06 09:47 | 34.19433 | -15.57780 | 35694 ft | 455 kts | 213° |
| 2026-05-06 09:48 | 34.16686 | -15.59726 | 34907 ft | 458 kts | 213° |
| 2026-05-06 09:48 | 34.13926 | -15.61683 | 34122 ft | 461 kts | 213° |
| 2026-05-06 09:48 | 34.11171 | -15.63635 | 33564 ft | 457 kts | 213° |
| 2026-05-06 09:48 | 34.08439 | -15.65571 | 32982 ft | 453 kts | 214° |
| 2026-05-06 09:49 | 34.05775 | -15.67460 | 32426 ft | 449 kts | 213° |
| 2026-05-06 09:49 | 34.03094 | -15.69356 | 31866 ft | 445 kts | 213° |
| 2026-05-06 09:49 | 34.00430 | -15.71240 | 31307 ft | 442 kts | 213° |
| 2026-05-06 09:49 | 33.97787 | -15.73110 | 30760 ft | 439 kts | 213° |
| 2026-05-06 09:50 | 33.95159 | -15.74968 | 30202 ft | 436 kts | 213° |
| 2026-05-06 09:50 | 33.92557 | -15.76807 | 29627 ft | 432 kts | 213° |
| 2026-05-06 09:50 | 33.89970 | -15.78633 | 29099 ft | 428 kts | 213° |
| 2026-05-06 09:50 | 33.87414 | -15.80435 | 28579 ft | 424 kts | 213° |
| 2026-05-06 09:51 | 33.84885 | -15.82216 | 28064 ft | 420 kts | 213° |
| 2026-05-06 09:51 | 33.82380 | -15.83979 | 27549 ft | 416 kts | 214° |
| 2026-05-06 09:51 | 33.79893 | -15.85729 | 27070 ft | 411 kts | 214° |
| 2026-05-06 09:51 | 33.77436 | -15.87455 | 26595 ft | 408 kts | 214° |
| 2026-05-06 09:52 | 33.75000 | -15.89165 | 26126 ft | 404 kts | 214° |
| 2026-05-06 09:52 | 33.72581 | -15.90861 | 25669 ft | 401 kts | 214° |
| 2026-05-06 09:52 | 33.70182 | -15.92546 | 25216 ft | 398 kts | 214° |
| 2026-05-06 09:52 | 33.67803 | -15.94216 | 24776 ft | 394 kts | 214° |
| 2026-05-06 09:53 | 33.65459 | -15.95881 | 24341 ft | 390 kts | 215° |
| 2026-05-06 09:53 | 33.63159 | -15.97600 | 23893 ft | 388 kts | 216° |
| 2026-05-06 09:53 | 33.60898 | -15.99355 | 23401 ft | 385 kts | 217° |
| 2026-05-06 09:53 | 33.58669 | -16.01106 | 22944 ft | 381 kts | 217° |
| 2026-05-06 09:54 | 33.56459 | -16.02836 | 22506 ft | 378 kts | 217° |
| 2026-05-06 09:54 | 33.54257 | -16.04545 | 22056 ft | 376 kts | 216° |
| 2026-05-06 09:54 | 33.52068 | -16.06229 | 21614 ft | 373 kts | 216° |
| 2026-05-06 09:54 | 33.49884 | -16.07900 | 21175 ft | 371 kts | 216° |
| 2026-05-06 09:55 | 33.47707 | -16.09563 | 20725 ft | 370 kts | 216° |
| 2026-05-06 09:55 | 33.45542 | -16.11214 | 20284 ft | 368 kts | 216° |
| 2026-05-06 09:55 | 33.43385 | -16.12855 | 19842 ft | 367 kts | 216° |
| 2026-05-06 09:55 | 33.41234 | -16.14493 | 19400 ft | 365 kts | 216° |
| 2026-05-06 09:56 | 33.39097 | -16.16122 | 18976 ft | 364 kts | 216° |
| 2026-05-06 09:56 | 33.36966 | -16.17748 | 18531 ft | 363 kts | 216° |
| 2026-05-06 09:56 | 33.34843 | -16.19371 | 18055 ft | 361 kts | 216° |
| 2026-05-06 09:56 | 33.32736 | -16.20980 | 17620 ft | 358 kts | 216° |
| 2026-05-06 09:57 | 33.30644 | -16.22575 | 17210 ft | 355 kts | 216° |
| 2026-05-06 09:57 | 33.28569 | -16.24155 | 16793 ft | 352 kts | 216° |
| 2026-05-06 09:57 | 33.26513 | -16.25717 | 16378 ft | 349 kts | 215° |
| 2026-05-06 09:57 | 33.24469 | -16.27266 | 15969 ft | 347 kts | 215° |
| 2026-05-06 09:58 | 33.22442 | -16.28802 | 15570 ft | 344 kts | 215° |
| 2026-05-06 09:58 | 33.20423 | -16.30334 | 15166 ft | 343 kts | 215° |
| 2026-05-06 09:58 | 33.18415 | -16.31857 | 14767 ft | 341 kts | 215° |
| 2026-05-06 09:58 | 33.16414 | -16.33374 | 14366 ft | 339 kts | 215° |
| 2026-05-06 09:59 | 33.14431 | -16.34876 | 13948 ft | 334 kts | 215° |
| 2026-05-06 09:59 | 33.12521 | -16.36316 | 13616 ft | 321 kts | 215° |
| 2026-05-06 09:59 | 33.10682 | -16.37699 | 13387 ft | 306 kts | 215° |
| 2026-05-06 09:59 | 33.08897 | -16.39047 | 12913 ft | 301 kts | 216° |
| 2026-05-06 10:00 | 33.07138 | -16.40381 | 12446 ft | 299 kts | 216° |
| 2026-05-06 10:00 | 33.05385 | -16.41710 | 12062 ft | 298 kts | 215° |
| 2026-05-06 10:00 | 33.03634 | -16.43036 | 11706 ft | 297 kts | 215° |
| 2026-05-06 10:00 | 33.01906 | -16.44342 | 11175 ft | 293 kts | 216° |
| 2026-05-06 10:01 | 33.00188 | -16.45641 | 10595 ft | 291 kts | 214° |
| 2026-05-06 10:01 | 32.98482 | -16.46931 | 10000 ft | 290 kts | 214° |
| 2026-05-06 10:01 | 32.96786 | -16.48210 | 9353 ft | 287 kts | 214° |
| 2026-05-06 10:01 | 32.95109 | -16.49472 | 8870 ft | 280 kts | 216° |
| 2026-05-06 10:02 | 32.93505 | -16.50675 | 8605 ft | 264 kts | 216° |
| 2026-05-06 10:02 | 32.92097 | -16.51964 | 8359 ft | 250 kts | 226° |
| 2026-05-06 10:02 | 32.91245 | -16.52880 | 8189 ft | 248 kts | 225° |
| 2026-05-06 10:02 | 32.89967 | -16.54250 | 7938 ft | 246 kts | 224° |
| 2026-05-06 10:03 | 32.88708 | -16.55592 | 7788 ft | 239 kts | 226° |
| 2026-05-06 10:03 | 32.87486 | -16.56894 | 7655 ft | 232 kts | 226° |
| 2026-05-06 10:03 | 32.86306 | -16.58155 | 7528 ft | 225 kts | 226° |
| 2026-05-06 10:03 | 32.85158 | -16.59384 | 7338 ft | 221 kts | 224° |
| 2026-05-06 10:04 | 32.84027 | -16.60592 | 7073 ft | 215 kts | 225° |
| 2026-05-06 10:04 | 32.82928 | -16.61762 | 6728 ft | 209 kts | 225° |
| 2026-05-06 10:04 | 32.81779 | -16.62789 | 6351 ft | 205 kts | 216° |
| 2026-05-06 10:04 | 32.80513 | -16.63559 | 5973 ft | 203 kts | 204° |
| 2026-05-06 10:05 | 32.79179 | -16.64116 | 5555 ft | 203 kts | 202° |
| 2026-05-06 10:05 | 32.77829 | -16.64663 | 5095 ft | 208 kts | 201° |
| 2026-05-06 10:05 | 32.76462 | -16.65218 | 4698 ft | 206 kts | 200° |
| 2026-05-06 10:05 | 32.75109 | -16.65768 | 4272 ft | 206 kts | 200° |
| 2026-05-06 10:06 | 32.73749 | -16.66321 | 3859 ft | 207 kts | 199° |
| 2026-05-06 10:06 | 32.72395 | -16.66872 | 3584 ft | 205 kts | 198° |
| 2026-05-06 10:06 | 32.71047 | -16.67420 | 3277 ft | 204 kts | 198° |
| 2026-05-06 10:06 | 32.69705 | -16.67964 | 2992 ft | 202 kts | 198° |
| 2026-05-06 10:07 | 32.68407 | -16.68490 | 2763 ft | 191 kts | 197° |
| 2026-05-06 10:07 | 32.67212 | -16.68974 | 2509 ft | 174 kts | 198° |
| 2026-05-06 10:07 | 32.66076 | -16.69435 | 2249 ft | 172 kts | 197° |
| 2026-05-06 10:07 | 32.64948 | -16.69892 | 2051 ft | 170 kts | 198° |
| 2026-05-06 10:08 | 32.63842 | -16.70354 | 2002 ft | 172 kts | 203° |
| 2026-05-06 10:08 | 32.62809 | -16.71064 | 2010 ft | 172 kts | 218° |
| 2026-05-06 10:08 | 32.61952 | -16.72045 | 2016 ft | 169 kts | 232° |
| 2026-05-06 10:08 | 32.61328 | -16.73207 | 2009 ft | 166 kts | 247° |
| 2026-05-06 10:09 | 32.60958 | -16.74471 | 1976 ft | 159 kts | 262° |
| 2026-05-06 10:09 | 32.60852 | -16.75758 | 1936 ft | 155 kts | 275° |
| 2026-05-06 10:09 | 32.60983 | -16.77009 | 1923 ft | 151 kts | 290° |
| 2026-05-06 10:09 | 32.61427 | -16.78099 | 1899 ft | 145 kts | 314° |
| 2026-05-06 10:10 | 32.62134 | -16.78916 | 1818 ft | 140 kts | 329° |
| 2026-05-06 10:10 | 32.62958 | -16.79526 | 1697 ft | 140 kts | 335° |
| 2026-05-06 10:10 | 32.63834 | -16.79972 | 1534 ft | 135 kts | 350° |
| 2026-05-06 10:10 | 32.64762 | -16.80169 | 1362 ft | 134 kts | 360° |
| 2026-05-06 10:11 | 32.65688 | -16.80242 | 1130 ft | 135 kts | 2° |
| 2026-05-06 10:11 | 32.66615 | -16.80106 | 889 ft | 134 kts | 12° |
| 2026-05-06 10:11 | 32.67523 | -16.79785 | 616 ft | 135 kts | 21° |
| 2026-05-06 10:11 | 32.68313 | -16.79167 | 420 ft | 136 kts | 41° |
| 2026-05-06 10:12 | 32.68988 | -16.78375 | 213 ft | 134 kts | 39° |
| 2026-05-06 10:12 | 32.69593 | -16.77679 | 176 ft | 102 kts | 44° |
| 2026-05-06 10:12 | 32.69895 | -16.77326 | 176 ft | 30 kts | 45° |
| 2026-05-06 10:12 | 32.69965 | -16.77239 | 176 ft | 8 kts | 51° |
| 2026-05-06 10:13 | 32.69957 | -16.77188 | 176 ft | 6 kts | 146° |
| 2026-05-06 10:13 | 32.69919 | -16.77179 | 176 ft | 6 kts | 178° |
| 2026-05-06 10:13 | 32.69864 | -16.77178 | 176 ft | 8 kts | 181° |
| 2026-05-06 10:13 | 32.69822 | -16.77201 | 176 ft | 6 kts | 218° |
| 2026-05-06 10:14 | 32.69781 | -16.77250 | 176 ft | 12 kts | 225° |
| 2026-05-06 10:14 | 32.69723 | -16.77321 | 176 ft | 12 kts | 226° |
| 2026-05-06 10:14 | 32.69670 | -16.77386 | 176 ft | 10 kts | 226° |
| 2026-05-06 10:14 | 32.69623 | -16.77444 | 176 ft | 9 kts | 226° |
| 2026-05-06 10:15 | 32.69566 | -16.77515 | 176 ft | 12 kts | 226° |
| 2026-05-06 10:15 | 32.69510 | -16.77586 | 176 ft | 11 kts | 226° |
| 2026-05-06 10:15 | 32.69464 | -16.77636 | 176 ft | 6 kts | 199° |
| 2026-05-06 10:15 | 32.69432 | -16.77615 | 176 ft | 5 kts | 138° |
| 2026-05-06 10:16 | 32.69412 | -16.77593 | 176 ft | 2 kts | 138° |